sensor_id;sensor_type;location;lat;lon;timestamp;P1;durP1;ratioP1;P2;durP2;ratioP2
7843;SDS011;3967;48.702;9.326;2023-05-29T00:00:47;4.93;;;3.80;;
7843;SDS011;3967;48.702;9.326;2023-05-29T00:03:14;6.83;;;4.10;;
7843;SDS011;3967;48.702;9.326;2023-05-29T00:05:41;5.20;;;3.93;;
7843;SDS011;3967;48.702;9.326;2023-05-29T00:08:08;4.97;;;3.93;;
7843;SDS011;3967;48.702;9.326;2023-05-29T00:10:34;6.57;;;4.67;;
7843;SDS011;3967;48.702;9.326;2023-05-29T00:13:03;5.70;;;4.30;;
7843;SDS011;3967;48.702;9.326;2023-05-29T00:15:33;6.40;;;4.33;;
7843;SDS011;3967;48.702;9.326;2023-05-29T00:17:59;7.17;;;4.50;;
7843;SDS011;3967;48.702;9.326;2023-05-29T00:20:27;5.63;;;4.17;;
7843;SDS011;3967;48.702;9.326;2023-05-29T00:22:54;7.17;;;4.00;;
7843;SDS011;3967;48.702;9.326;2023-05-29T00:25:21;5.33;;;4.30;;
7843;SDS011;3967;48.702;9.326;2023-05-29T00:27:48;7.83;;;4.50;;
7843;SDS011;3967;48.702;9.326;2023-05-29T00:30:15;7.37;;;4.33;;
7843;SDS011;3967;48.702;9.326;2023-05-29T00:32:41;7.23;;;4.50;;
7843;SDS011;3967;48.702;9.326;2023-05-29T00:35:08;7.30;;;4.40;;
7843;SDS011;3967;48.702;9.326;2023-05-29T00:37:36;4.67;;;4.17;;
7843;SDS011;3967;48.702;9.326;2023-05-29T00:40:03;5.77;;;4.13;;
7843;SDS011;3967;48.702;9.326;2023-05-29T00:42:30;5.30;;;4.33;;
7843;SDS011;3967;48.702;9.326;2023-05-29T00:44:57;9.43;;;3.90;;
7843;SDS011;3967;48.702;9.326;2023-05-29T00:47:24;5.73;;;3.83;;
7843;SDS011;3967;48.702;9.326;2023-05-29T00:49:51;6.50;;;4.47;;
7843;SDS011;3967;48.702;9.326;2023-05-29T00:52:21;5.53;;;4.10;;
7843;SDS011;3967;48.702;9.326;2023-05-29T00:54:49;5.07;;;3.80;;
7843;SDS011;3967;48.702;9.326;2023-05-29T00:57:16;7.83;;;4.70;;
7843;SDS011;3967;48.702;9.326;2023-05-29T00:59:44;6.10;;;3.73;;
7843;SDS011;3967;48.702;9.326;2023-05-29T01:02:15;5.87;;;4.03;;
7843;SDS011;3967;48.702;9.326;2023-05-29T01:04:44;5.47;;;3.90;;
7843;SDS011;3967;48.702;9.326;2023-05-29T01:07:11;4.47;;;3.77;;
7843;SDS011;3967;48.702;9.326;2023-05-29T01:09:40;5.53;;;3.70;;
7843;SDS011;3967;48.702;9.326;2023-05-29T01:20:52;4.57;;;3.43;;
7843;SDS011;3967;48.702;9.326;2023-05-29T01:28:50;5.07;;;3.40;;
7843;SDS011;3967;48.702;9.326;2023-05-29T01:31:20;4.90;;;3.30;;
7843;SDS011;3967;48.702;9.326;2023-05-29T01:33:57;5.53;;;3.60;;
7843;SDS011;3967;48.702;9.326;2023-05-29T01:36:26;6.67;;;3.40;;
7843;SDS011;3967;48.702;9.326;2023-05-29T01:38:54;5.17;;;3.37;;
7843;SDS011;3967;48.702;9.326;2023-05-29T01:41:22;3.67;;;3.30;;
7843;SDS011;3967;48.702;9.326;2023-05-29T01:43:50;4.97;;;2.93;;
7843;SDS011;3967;48.702;9.326;2023-05-29T01:46:18;3.53;;;3.17;;
7843;SDS011;3967;48.702;9.326;2023-05-29T01:48:46;4.67;;;3.00;;
7843;SDS011;3967;48.702;9.326;2023-05-29T01:51:13;3.83;;;2.90;;
7843;SDS011;3967;48.702;9.326;2023-05-29T01:53:40;4.83;;;3.10;;
7843;SDS011;3967;48.702;9.326;2023-05-29T01:56:08;5.67;;;3.23;;
7843;SDS011;3967;48.702;9.326;2023-05-29T01:58:35;4.03;;;3.10;;
7843;SDS011;3967;48.702;9.326;2023-05-29T02:01:06;4.00;;;3.03;;
7843;SDS011;3967;48.702;9.326;2023-05-29T02:03:33;4.50;;;3.50;;
7843;SDS011;3967;48.702;9.326;2023-05-29T02:06:01;6.13;;;3.10;;
7843;SDS011;3967;48.702;9.326;2023-05-29T02:08:28;4.20;;;3.10;;
7843;SDS011;3967;48.702;9.326;2023-05-29T02:10:57;4.23;;;3.47;;
7843;SDS011;3967;48.702;9.326;2023-05-29T02:13:24;4.80;;;3.30;;
7843;SDS011;3967;48.702;9.326;2023-05-29T02:15:51;5.07;;;3.30;;
7843;SDS011;3967;48.702;9.326;2023-05-29T02:18:17;4.67;;;3.50;;
7843;SDS011;3967;48.702;9.326;2023-05-29T02:20:45;3.47;;;3.17;;
7843;SDS011;3967;48.702;9.326;2023-05-29T02:23:12;4.43;;;3.40;;
7843;SDS011;3967;48.702;9.326;2023-05-29T02:25:39;3.33;;;3.03;;
7843;SDS011;3967;48.702;9.326;2023-05-29T02:28:06;4.47;;;3.60;;
7843;SDS011;3967;48.702;9.326;2023-05-29T02:30:34;4.83;;;3.80;;
7843;SDS011;3967;48.702;9.326;2023-05-29T02:33:01;4.23;;;3.50;;
7843;SDS011;3967;48.702;9.326;2023-05-29T02:35:27;4.70;;;3.60;;
7843;SDS011;3967;48.702;9.326;2023-05-29T02:37:54;4.83;;;3.30;;
7843;SDS011;3967;48.702;9.326;2023-05-29T02:40:21;4.60;;;3.60;;
7843;SDS011;3967;48.702;9.326;2023-05-29T02:42:48;4.50;;;3.10;;
7843;SDS011;3967;48.702;9.326;2023-05-29T02:45:14;5.50;;;3.80;;
7843;SDS011;3967;48.702;9.326;2023-05-29T02:47:41;5.13;;;3.73;;
7843;SDS011;3967;48.702;9.326;2023-05-29T02:50:08;4.70;;;3.23;;
7843;SDS011;3967;48.702;9.326;2023-05-29T02:52:35;5.20;;;3.47;;
7843;SDS011;3967;48.702;9.326;2023-05-29T02:55:06;3.77;;;3.37;;
7843;SDS011;3967;48.702;9.326;2023-05-29T02:57:33;4.97;;;3.90;;
7843;SDS011;3967;48.702;9.326;2023-05-29T02:59:59;5.07;;;3.60;;
7843;SDS011;3967;48.702;9.326;2023-05-29T03:02:27;4.33;;;3.67;;
7843;SDS011;3967;48.702;9.326;2023-05-29T03:04:54;7.87;;;4.47;;
7843;SDS011;3967;48.702;9.326;2023-05-29T03:07:21;5.47;;;3.80;;
7843;SDS011;3967;48.702;9.326;2023-05-29T03:09:48;4.70;;;3.53;;
7843;SDS011;3967;48.702;9.326;2023-05-29T03:12:14;4.83;;;3.60;;
7843;SDS011;3967;48.702;9.326;2023-05-29T03:14:42;6.17;;;3.73;;
7843;SDS011;3967;48.702;9.326;2023-05-29T03:17:09;5.07;;;3.93;;
7843;SDS011;3967;48.702;9.326;2023-05-29T03:19:36;4.33;;;3.63;;
7843;SDS011;3967;48.702;9.326;2023-05-29T03:22:05;3.80;;;3.40;;
7843;SDS011;3967;48.702;9.326;2023-05-29T03:24:31;5.50;;;3.67;;
7843;SDS011;3967;48.702;9.326;2023-05-29T03:27:01;4.80;;;3.87;;
7843;SDS011;3967;48.702;9.326;2023-05-29T03:29:30;7.27;;;4.17;;
7843;SDS011;3967;48.702;9.326;2023-05-29T03:31:58;5.30;;;4.33;;
7843;SDS011;3967;48.702;9.326;2023-05-29T03:34:24;5.87;;;3.80;;
7843;SDS011;3967;48.702;9.326;2023-05-29T03:36:51;5.03;;;3.83;;
7843;SDS011;3967;48.702;9.326;2023-05-29T03:39:19;4.30;;;3.87;;
7843;SDS011;3967;48.702;9.326;2023-05-29T03:41:45;6.47;;;4.10;;
7843;SDS011;3967;48.702;9.326;2023-05-29T03:44:12;5.63;;;3.80;;
7843;SDS011;3967;48.702;9.326;2023-05-29T03:46:39;7.00;;;4.30;;
7843;SDS011;3967;48.702;9.326;2023-05-29T03:49:06;5.60;;;4.07;;
7843;SDS011;3967;48.702;9.326;2023-05-29T03:51:33;6.83;;;4.60;;
7843;SDS011;3967;48.702;9.326;2023-05-29T03:54:01;5.10;;;4.20;;
7843;SDS011;3967;48.702;9.326;2023-05-29T03:56:28;5.37;;;4.40;;
7843;SDS011;3967;48.702;9.326;2023-05-29T03:58:56;5.57;;;3.67;;
7843;SDS011;3967;48.702;9.326;2023-05-29T04:01:23;6.47;;;4.37;;
7843;SDS011;3967;48.702;9.326;2023-05-29T04:03:50;5.80;;;4.30;;
7843;SDS011;3967;48.702;9.326;2023-05-29T04:06:17;8.77;;;4.97;;
7843;SDS011;3967;48.702;9.326;2023-05-29T04:08:44;7.60;;;4.70;;
7843;SDS011;3967;48.702;9.326;2023-05-29T04:11:10;5.10;;;3.87;;
7843;SDS011;3967;48.702;9.326;2023-05-29T04:13:38;5.03;;;4.07;;
7843;SDS011;3967;48.702;9.326;2023-05-29T04:16:05;6.03;;;4.20;;
7843;SDS011;3967;48.702;9.326;2023-05-29T04:18:32;6.03;;;4.70;;
7843;SDS011;3967;48.702;9.326;2023-05-29T04:20:59;9.50;;;4.77;;
7843;SDS011;3967;48.702;9.326;2023-05-29T04:23:26;7.53;;;4.90;;
7843;SDS011;3967;48.702;9.326;2023-05-29T04:25:53;7.07;;;5.30;;
7843;SDS011;3967;48.702;9.326;2023-05-29T04:28:22;9.00;;;5.90;;
7843;SDS011;3967;48.702;9.326;2023-05-29T04:30:50;6.77;;;4.90;;
7843;SDS011;3967;48.702;9.326;2023-05-29T04:33:20;6.47;;;4.60;;
7843;SDS011;3967;48.702;9.326;2023-05-29T04:35:47;7.17;;;5.10;;
7843;SDS011;3967;48.702;9.326;2023-05-29T04:38:14;7.00;;;4.77;;
7843;SDS011;3967;48.702;9.326;2023-05-29T04:40:44;7.00;;;5.03;;
7843;SDS011;3967;48.702;9.326;2023-05-29T04:43:11;5.07;;;4.40;;
7843;SDS011;3967;48.702;9.326;2023-05-29T04:45:38;8.37;;;5.43;;
7843;SDS011;3967;48.702;9.326;2023-05-29T04:48:05;7.67;;;5.00;;
7843;SDS011;3967;48.702;9.326;2023-05-29T04:50:32;7.30;;;4.83;;
7843;SDS011;3967;48.702;9.326;2023-05-29T04:52:59;7.47;;;4.93;;
7843;SDS011;3967;48.702;9.326;2023-05-29T04:55:26;7.60;;;5.10;;
7843;SDS011;3967;48.702;9.326;2023-05-29T04:57:53;5.23;;;4.23;;
7843;SDS011;3967;48.702;9.326;2023-05-29T05:00:20;6.40;;;5.07;;
7843;SDS011;3967;48.702;9.326;2023-05-29T05:02:47;7.37;;;4.50;;
7843;SDS011;3967;48.702;9.326;2023-05-29T05:05:15;5.47;;;4.30;;
7843;SDS011;3967;48.702;9.326;2023-05-29T05:07:42;8.63;;;4.50;;
7843;SDS011;3967;48.702;9.326;2023-05-29T05:10:09;6.00;;;4.77;;
7843;SDS011;3967;48.702;9.326;2023-05-29T05:12:36;7.33;;;4.67;;
7843;SDS011;3967;48.702;9.326;2023-05-29T05:15:03;6.90;;;5.10;;
7843;SDS011;3967;48.702;9.326;2023-05-29T05:17:30;8.37;;;4.73;;
7843;SDS011;3967;48.702;9.326;2023-05-29T05:19:57;7.17;;;5.17;;
7843;SDS011;3967;48.702;9.326;2023-05-29T05:22:24;10.37;;;5.30;;
7843;SDS011;3967;48.702;9.326;2023-05-29T05:24:50;6.90;;;4.97;;
7843;SDS011;3967;48.702;9.326;2023-05-29T05:27:19;8.70;;;5.23;;
7843;SDS011;3967;48.702;9.326;2023-05-29T05:29:46;6.87;;;4.60;;
7843;SDS011;3967;48.702;9.326;2023-05-29T05:32:13;6.57;;;5.13;;
7843;SDS011;3967;48.702;9.326;2023-05-29T05:34:40;7.57;;;4.80;;
7843;SDS011;3967;48.702;9.326;2023-05-29T05:37:07;6.60;;;4.77;;
7843;SDS011;3967;48.702;9.326;2023-05-29T05:39:35;8.77;;;5.10;;
7843;SDS011;3967;48.702;9.326;2023-05-29T05:42:01;8.80;;;5.13;;
7843;SDS011;3967;48.702;9.326;2023-05-29T05:44:28;10.70;;;5.10;;
7843;SDS011;3967;48.702;9.326;2023-05-29T05:46:55;8.37;;;5.30;;
7843;SDS011;3967;48.702;9.326;2023-05-29T05:49:22;11.53;;;4.67;;
7843;SDS011;3967;48.702;9.326;2023-05-29T05:51:48;11.43;;;5.13;;
7843;SDS011;3967;48.702;9.326;2023-05-29T05:54:19;9.87;;;4.43;;
7843;SDS011;3967;48.702;9.326;2023-05-29T05:56:46;5.07;;;4.50;;
7843;SDS011;3967;48.702;9.326;2023-05-29T05:59:13;5.10;;;4.10;;
7843;SDS011;3967;48.702;9.326;2023-05-29T06:01:42;5.73;;;4.33;;
7843;SDS011;3967;48.702;9.326;2023-05-29T06:04:09;6.10;;;4.50;;
7843;SDS011;3967;48.702;9.326;2023-05-29T06:06:36;6.80;;;5.10;;
7843;SDS011;3967;48.702;9.326;2023-05-29T06:09:03;7.93;;;4.97;;
7843;SDS011;3967;48.702;9.326;2023-05-29T06:11:30;6.03;;;4.50;;
7843;SDS011;3967;48.702;9.326;2023-05-29T06:13:58;7.07;;;4.43;;
7843;SDS011;3967;48.702;9.326;2023-05-29T06:16:24;7.07;;;4.60;;
7843;SDS011;3967;48.702;9.326;2023-05-29T06:18:51;6.47;;;4.63;;
7843;SDS011;3967;48.702;9.326;2023-05-29T06:21:18;10.40;;;5.07;;
7843;SDS011;3967;48.702;9.326;2023-05-29T06:23:45;6.97;;;4.57;;
7843;SDS011;3967;48.702;9.326;2023-05-29T06:26:12;7.33;;;4.60;;
7843;SDS011;3967;48.702;9.326;2023-05-29T06:28:39;8.40;;;4.57;;
7843;SDS011;3967;48.702;9.326;2023-05-29T06:31:06;8.90;;;4.23;;
7843;SDS011;3967;48.702;9.326;2023-05-29T06:33:32;6.93;;;3.97;;
7843;SDS011;3967;48.702;9.326;2023-05-29T06:35:59;8.07;;;4.60;;
7843;SDS011;3967;48.702;9.326;2023-05-29T06:38:28;7.13;;;5.07;;
7843;SDS011;3967;48.702;9.326;2023-05-29T06:40:55;4.53;;;4.07;;
7843;SDS011;3967;48.702;9.326;2023-05-29T06:43:22;5.97;;;4.40;;
7843;SDS011;3967;48.702;9.326;2023-05-29T06:45:49;5.23;;;4.10;;
7843;SDS011;3967;48.702;9.326;2023-05-29T06:48:16;4.87;;;4.00;;
7843;SDS011;3967;48.702;9.326;2023-05-29T06:50:43;7.47;;;3.80;;
7843;SDS011;3967;48.702;9.326;2023-05-29T06:53:10;5.87;;;3.93;;
7843;SDS011;3967;48.702;9.326;2023-05-29T06:55:37;6.33;;;3.90;;
7843;SDS011;3967;48.702;9.326;2023-05-29T06:58:09;6.90;;;3.87;;
7843;SDS011;3967;48.702;9.326;2023-05-29T07:00:36;6.47;;;4.00;;
7843;SDS011;3967;48.702;9.326;2023-05-29T07:03:03;6.87;;;4.00;;
7843;SDS011;3967;48.702;9.326;2023-05-29T07:05:30;7.40;;;3.80;;
7843;SDS011;3967;48.702;9.326;2023-05-29T07:07:57;9.27;;;4.20;;
7843;SDS011;3967;48.702;9.326;2023-05-29T07:10:23;7.23;;;3.77;;
7843;SDS011;3967;48.702;9.326;2023-05-29T07:12:50;5.57;;;3.67;;
7843;SDS011;3967;48.702;9.326;2023-05-29T07:15:17;3.97;;;3.13;;
7843;SDS011;3967;48.702;9.326;2023-05-29T07:17:44;7.67;;;3.90;;
7843;SDS011;3967;48.702;9.326;2023-05-29T07:20:11;6.50;;;3.27;;
7843;SDS011;3967;48.702;9.326;2023-05-29T07:22:38;5.93;;;3.70;;
7843;SDS011;3967;48.702;9.326;2023-05-29T07:25:04;4.27;;;3.43;;
7843;SDS011;3967;48.702;9.326;2023-05-29T07:27:31;5.63;;;3.23;;
7843;SDS011;3967;48.702;9.326;2023-05-29T07:29:58;5.27;;;3.70;;
7843;SDS011;3967;48.702;9.326;2023-05-29T07:32:25;4.00;;;3.40;;
7843;SDS011;3967;48.702;9.326;2023-05-29T07:34:52;5.03;;;3.60;;
7843;SDS011;3967;48.702;9.326;2023-05-29T07:37:18;4.63;;;3.87;;
7843;SDS011;3967;48.702;9.326;2023-05-29T07:39:45;4.13;;;3.30;;
7843;SDS011;3967;48.702;9.326;2023-05-29T07:42:12;6.00;;;3.70;;
7843;SDS011;3967;48.702;9.326;2023-05-29T07:44:39;4.67;;;3.00;;
7843;SDS011;3967;48.702;9.326;2023-05-29T07:47:08;5.40;;;3.10;;
7843;SDS011;3967;48.702;9.326;2023-05-29T07:49:35;4.07;;;3.67;;
7843;SDS011;3967;48.702;9.326;2023-05-29T07:52:02;4.87;;;3.40;;
7843;SDS011;3967;48.702;9.326;2023-05-29T07:54:30;7.63;;;3.37;;
7843;SDS011;3967;48.702;9.326;2023-05-29T07:56:59;5.27;;;3.60;;
7843;SDS011;3967;48.702;9.326;2023-05-29T07:59:26;4.93;;;3.37;;
7843;SDS011;3967;48.702;9.326;2023-05-29T08:01:53;5.13;;;2.80;;
7843;SDS011;3967;48.702;9.326;2023-05-29T08:04:19;4.60;;;3.57;;
7843;SDS011;3967;48.702;9.326;2023-05-29T08:06:47;5.17;;;3.37;;
7843;SDS011;3967;48.702;9.326;2023-05-29T08:09:14;4.70;;;3.70;;
7843;SDS011;3967;48.702;9.326;2023-05-29T08:11:40;5.10;;;3.77;;
7843;SDS011;3967;48.702;9.326;2023-05-29T08:14:07;4.90;;;4.40;;
7843;SDS011;3967;48.702;9.326;2023-05-29T08:16:34;4.57;;;4.10;;
7843;SDS011;3967;48.702;9.326;2023-05-29T08:19:01;6.43;;;3.57;;
7843;SDS011;3967;48.702;9.326;2023-05-29T08:21:28;4.03;;;3.63;;
7843;SDS011;3967;48.702;9.326;2023-05-29T08:23:55;5.27;;;3.37;;
7843;SDS011;3967;48.702;9.326;2023-05-29T08:26:22;3.63;;;3.13;;
7843;SDS011;3967;48.702;9.326;2023-05-29T08:28:49;5.23;;;3.67;;
7843;SDS011;3967;48.702;9.326;2023-05-29T08:31:16;3.73;;;3.20;;
7843;SDS011;3967;48.702;9.326;2023-05-29T08:33:43;5.73;;;3.37;;
7843;SDS011;3967;48.702;9.326;2023-05-29T08:36:10;4.83;;;3.87;;
7843;SDS011;3967;48.702;9.326;2023-05-29T08:38:37;6.30;;;3.63;;
7843;SDS011;3967;48.702;9.326;2023-05-29T08:41:04;4.20;;;3.28;;
7843;SDS011;3967;48.702;9.326;2023-05-29T08:43:33;4.53;;;3.22;;
7843;SDS011;3967;48.702;9.326;2023-05-29T08:46:01;5.43;;;3.50;;
7843;SDS011;3967;48.702;9.326;2023-05-29T08:48:29;4.20;;;3.45;;
7843;SDS011;3967;48.702;9.326;2023-05-29T08:51:00;4.43;;;3.95;;
7843;SDS011;3967;48.702;9.326;2023-05-29T08:53:29;3.65;;;3.08;;
7843;SDS011;3967;48.702;9.326;2023-05-29T08:55:57;5.22;;;3.58;;
7843;SDS011;3967;48.702;9.326;2023-05-29T08:58:24;5.38;;;3.42;;
7843;SDS011;3967;48.702;9.326;2023-05-29T09:00:52;5.05;;;3.60;;
7843;SDS011;3967;48.702;9.326;2023-05-29T09:03:20;4.65;;;3.05;;
7843;SDS011;3967;48.702;9.326;2023-05-29T09:05:48;6.13;;;3.97;;
7843;SDS011;3967;48.702;9.326;2023-05-29T09:08:15;3.47;;;2.97;;
7843;SDS011;3967;48.702;9.326;2023-05-29T09:10:43;4.55;;;3.40;;
7843;SDS011;3967;48.702;9.326;2023-05-29T09:13:12;4.97;;;3.90;;
7843;SDS011;3967;48.702;9.326;2023-05-29T09:15:40;3.60;;;3.30;;
7843;SDS011;3967;48.702;9.326;2023-05-29T09:18:10;5.82;;;3.85;;
7843;SDS011;3967;48.702;9.326;2023-05-29T09:20:37;4.88;;;3.53;;
7843;SDS011;3967;48.702;9.326;2023-05-29T09:23:05;4.53;;;4.00;;
7843;SDS011;3967;48.702;9.326;2023-05-29T09:25:35;5.05;;;4.05;;
7843;SDS011;3967;48.702;9.326;2023-05-29T09:28:07;4.07;;;3.47;;
7843;SDS011;3967;48.702;9.326;2023-05-29T09:33:08;6.78;;;3.35;;
7843;SDS011;3967;48.702;9.326;2023-05-29T09:35:37;4.80;;;3.40;;
7843;SDS011;3967;48.702;9.326;2023-05-29T09:38:10;7.03;;;3.70;;
7843;SDS011;3967;48.702;9.326;2023-05-29T09:41:05;4.95;;;3.28;;
7843;SDS011;3967;48.702;9.326;2023-05-29T09:43:32;4.82;;;3.15;;
7843;SDS011;3967;48.702;9.326;2023-05-29T09:46:00;6.00;;;3.13;;
7843;SDS011;3967;48.702;9.326;2023-05-29T09:48:29;3.72;;;3.33;;
7843;SDS011;3967;48.702;9.326;2023-05-29T09:50:57;3.88;;;2.72;;
7843;SDS011;3967;48.702;9.326;2023-05-29T09:53:25;6.03;;;3.00;;
7843;SDS011;3967;48.702;9.326;2023-05-29T09:55:55;5.82;;;2.75;;
7843;SDS011;3967;48.702;9.326;2023-05-29T09:58:25;4.03;;;3.60;;
7843;SDS011;3967;48.702;9.326;2023-05-29T10:00:52;3.22;;;2.78;;
7843;SDS011;3967;48.702;9.326;2023-05-29T10:03:20;5.00;;;3.35;;
7843;SDS011;3967;48.702;9.326;2023-05-29T10:05:50;4.15;;;2.72;;
7843;SDS011;3967;48.702;9.326;2023-05-29T10:08:19;3.67;;;2.60;;
7843;SDS011;3967;48.702;9.326;2023-05-29T10:10:48;5.20;;;2.70;;
7843;SDS011;3967;48.702;9.326;2023-05-29T10:13:22;6.15;;;3.40;;
7843;SDS011;3967;48.702;9.326;2023-05-29T10:15:52;3.00;;;2.65;;
7843;SDS011;3967;48.702;9.326;2023-05-29T10:18:23;4.13;;;2.72;;
7843;SDS011;3967;48.702;9.326;2023-05-29T10:20:57;3.95;;;3.00;;
7843;SDS011;3967;48.702;9.326;2023-05-29T10:23:26;3.53;;;2.83;;
7843;SDS011;3967;48.702;9.326;2023-05-29T10:26:02;3.88;;;2.88;;
7843;SDS011;3967;48.702;9.326;2023-05-29T10:28:39;6.80;;;3.00;;
7843;SDS011;3967;48.702;9.326;2023-05-29T10:31:13;4.72;;;2.67;;
7843;SDS011;3967;48.702;9.326;2023-05-29T10:36:44;3.65;;;2.78;;
7843;SDS011;3967;48.702;9.326;2023-05-29T10:39:20;3.85;;;2.90;;
7843;SDS011;3967;48.702;9.326;2023-05-29T10:41:48;4.07;;;3.33;;
7843;SDS011;3967;48.702;9.326;2023-05-29T10:49:25;5.70;;;2.83;;
7843;SDS011;3967;48.702;9.326;2023-05-29T10:51:52;4.18;;;2.97;;
7843;SDS011;3967;48.702;9.326;2023-05-29T10:54:21;3.15;;;2.67;;
7843;SDS011;3967;48.702;9.326;2023-05-29T10:56:57;4.47;;;2.90;;
7843;SDS011;3967;48.702;9.326;2023-05-29T10:59:27;4.95;;;2.78;;
7843;SDS011;3967;48.702;9.326;2023-05-29T11:01:55;3.55;;;2.55;;
7843;SDS011;3967;48.702;9.326;2023-05-29T11:06:54;4.22;;;2.63;;
7843;SDS011;3967;48.702;9.326;2023-05-29T11:15:06;3.03;;;2.42;;
7843;SDS011;3967;48.702;9.326;2023-05-29T11:20:07;7.32;;;2.90;;
7843;SDS011;3967;48.702;9.326;2023-05-29T11:25:13;3.13;;;2.42;;
7843;SDS011;3967;48.702;9.326;2023-05-29T11:27:43;3.97;;;2.50;;
7843;SDS011;3967;48.702;9.326;2023-05-29T11:30:10;4.05;;;2.47;;
7843;SDS011;3967;48.702;9.326;2023-05-29T11:32:38;3.05;;;2.55;;
7843;SDS011;3967;48.702;9.326;2023-05-29T11:35:09;3.10;;;2.50;;
7843;SDS011;3967;48.702;9.326;2023-05-29T11:37:40;3.53;;;2.60;;
7843;SDS011;3967;48.702;9.326;2023-05-29T11:40:12;3.47;;;2.58;;
7843;SDS011;3967;48.702;9.326;2023-05-29T11:42:43;4.95;;;2.60;;
7843;SDS011;3967;48.702;9.326;2023-05-29T11:50:25;4.45;;;2.42;;
7843;SDS011;3967;48.702;9.326;2023-05-29T11:52:53;4.43;;;2.50;;
7843;SDS011;3967;48.702;9.326;2023-05-29T11:55:21;2.97;;;2.25;;
7843;SDS011;3967;48.702;9.326;2023-05-29T11:57:49;3.53;;;2.15;;
7843;SDS011;3967;48.702;9.326;2023-05-29T12:00:18;3.15;;;2.47;;
7843;SDS011;3967;48.702;9.326;2023-05-29T12:02:45;2.95;;;2.33;;
7843;SDS011;3967;48.702;9.326;2023-05-29T12:05:16;2.30;;;2.10;;
7843;SDS011;3967;48.702;9.326;2023-05-29T12:07:58;4.90;;;3.05;;
7843;SDS011;3967;48.702;9.326;2023-05-29T12:10:30;4.57;;;2.70;;
7843;SDS011;3967;48.702;9.326;2023-05-29T12:12:58;2.47;;;2.28;;
7843;SDS011;3967;48.702;9.326;2023-05-29T12:15:27;2.83;;;2.40;;
7843;SDS011;3967;48.702;9.326;2023-05-29T12:17:54;2.63;;;2.42;;
7843;SDS011;3967;48.702;9.326;2023-05-29T12:20:23;3.20;;;2.42;;
7843;SDS011;3967;48.702;9.326;2023-05-29T12:22:58;3.30;;;2.20;;
7843;SDS011;3967;48.702;9.326;2023-05-29T12:25:27;3.30;;;2.10;;
7843;SDS011;3967;48.702;9.326;2023-05-29T12:27:55;4.93;;;2.45;;
7843;SDS011;3967;48.702;9.326;2023-05-29T12:30:22;2.80;;;2.45;;
7843;SDS011;3967;48.702;9.326;2023-05-29T12:32:59;3.75;;;2.58;;
7843;SDS011;3967;48.702;9.326;2023-05-29T12:35:28;3.95;;;2.20;;
7843;SDS011;3967;48.702;9.326;2023-05-29T12:38:04;5.38;;;2.40;;
7843;SDS011;3967;48.702;9.326;2023-05-29T12:40:34;2.72;;;2.33;;
7843;SDS011;3967;48.702;9.326;2023-05-29T12:43:03;4.78;;;2.67;;
7843;SDS011;3967;48.702;9.326;2023-05-29T12:45:37;4.95;;;2.38;;
7843;SDS011;3967;48.702;9.326;2023-05-29T12:48:04;3.85;;;2.45;;
7843;SDS011;3967;48.702;9.326;2023-05-29T12:50:33;4.90;;;2.50;;
7843;SDS011;3967;48.702;9.326;2023-05-29T12:53:09;5.60;;;2.42;;
7843;SDS011;3967;48.702;9.326;2023-05-29T12:55:41;3.80;;;2.60;;
7843;SDS011;3967;48.702;9.326;2023-05-29T12:58:09;3.92;;;2.80;;
7843;SDS011;3967;48.702;9.326;2023-05-29T13:00:40;3.20;;;2.40;;
7843;SDS011;3967;48.702;9.326;2023-05-29T13:03:08;3.28;;;2.25;;
7843;SDS011;3967;48.702;9.326;2023-05-29T13:05:37;2.40;;;2.20;;
7843;SDS011;3967;48.702;9.326;2023-05-29T13:08:04;2.88;;;2.58;;
7843;SDS011;3967;48.702;9.326;2023-05-29T13:10:33;2.85;;;2.20;;
7843;SDS011;3967;48.702;9.326;2023-05-29T13:13:01;9.75;;;2.35;;
7843;SDS011;3967;48.702;9.326;2023-05-29T13:15:28;2.83;;;2.55;;
7843;SDS011;3967;48.702;9.326;2023-05-29T13:17:55;4.20;;;2.38;;
7843;SDS011;3967;48.702;9.326;2023-05-29T13:20:22;4.25;;;2.47;;
7843;SDS011;3967;48.702;9.326;2023-05-29T13:22:49;3.00;;;2.80;;
7843;SDS011;3967;48.702;9.326;2023-05-29T13:25:16;2.97;;;2.40;;
7843;SDS011;3967;48.702;9.326;2023-05-29T13:27:47;2.08;;;1.95;;
7843;SDS011;3967;48.702;9.326;2023-05-29T13:30:14;2.58;;;2.35;;
7843;SDS011;3967;48.702;9.326;2023-05-29T13:32:42;5.18;;;2.60;;
7843;SDS011;3967;48.702;9.326;2023-05-29T13:35:09;2.92;;;2.63;;
7843;SDS011;3967;48.702;9.326;2023-05-29T13:37:39;3.65;;;2.50;;
7843;SDS011;3967;48.702;9.326;2023-05-29T13:40:06;3.97;;;2.25;;
7843;SDS011;3967;48.702;9.326;2023-05-29T13:42:37;2.90;;;2.60;;
7843;SDS011;3967;48.702;9.326;2023-05-29T13:45:05;5.03;;;2.80;;
7843;SDS011;3967;48.702;9.326;2023-05-29T13:47:34;3.88;;;2.90;;
7843;SDS011;3967;48.702;9.326;2023-05-29T13:50:01;3.05;;;2.70;;
7843;SDS011;3967;48.702;9.326;2023-05-29T13:52:28;2.92;;;2.72;;
7843;SDS011;3967;48.702;9.326;2023-05-29T13:54:55;4.70;;;3.03;;
7843;SDS011;3967;48.702;9.326;2023-05-29T13:57:24;3.40;;;2.50;;
7843;SDS011;3967;48.702;9.326;2023-05-29T13:59:50;4.60;;;2.55;;
7843;SDS011;3967;48.702;9.326;2023-05-29T14:02:17;3.13;;;2.63;;
7843;SDS011;3967;48.702;9.326;2023-05-29T14:04:44;3.80;;;3.20;;
7843;SDS011;3967;48.702;9.326;2023-05-29T14:07:11;2.92;;;2.63;;
7843;SDS011;3967;48.702;9.326;2023-05-29T14:09:37;3.08;;;2.80;;
7843;SDS011;3967;48.702;9.326;2023-05-29T14:12:04;2.92;;;2.58;;
7843;SDS011;3967;48.702;9.326;2023-05-29T14:14:32;5.00;;;2.60;;
7843;SDS011;3967;48.702;9.326;2023-05-29T14:17:00;3.10;;;2.90;;
7843;SDS011;3967;48.702;9.326;2023-05-29T14:19:27;4.43;;;2.83;;
7843;SDS011;3967;48.702;9.326;2023-05-29T14:21:54;3.20;;;2.50;;
7843;SDS011;3967;48.702;9.326;2023-05-29T14:24:21;5.00;;;2.75;;
7843;SDS011;3967;48.702;9.326;2023-05-29T14:26:47;4.82;;;2.80;;
7843;SDS011;3967;48.702;9.326;2023-05-29T14:29:15;3.30;;;3.00;;
7843;SDS011;3967;48.702;9.326;2023-05-29T14:31:42;3.00;;;2.65;;
7843;SDS011;3967;48.702;9.326;2023-05-29T14:34:10;3.97;;;2.63;;
7843;SDS011;3967;48.702;9.326;2023-05-29T14:36:38;5.05;;;2.42;;
7843;SDS011;3967;48.702;9.326;2023-05-29T14:39:06;3.03;;;2.72;;
7843;SDS011;3967;48.702;9.326;2023-05-29T14:41:33;3.22;;;2.58;;
7843;SDS011;3967;48.702;9.326;2023-05-29T14:44:01;3.00;;;2.80;;
7843;SDS011;3967;48.702;9.326;2023-05-29T14:46:28;2.83;;;2.63;;
7843;SDS011;3967;48.702;9.326;2023-05-29T14:48:58;3.28;;;2.88;;
7843;SDS011;3967;48.702;9.326;2023-05-29T14:51:25;3.58;;;2.75;;
7843;SDS011;3967;48.702;9.326;2023-05-29T14:53:52;3.60;;;2.40;;
7843;SDS011;3967;48.702;9.326;2023-05-29T14:56:19;3.22;;;2.97;;
7843;SDS011;3967;48.702;9.326;2023-05-29T14:58:46;2.63;;;2.35;;
7843;SDS011;3967;48.702;9.326;2023-05-29T15:01:15;5.18;;;2.67;;
7843;SDS011;3967;48.702;9.326;2023-05-29T15:03:42;3.20;;;2.45;;
7843;SDS011;3967;48.702;9.326;2023-05-29T15:06:10;4.30;;;2.80;;
7843;SDS011;3967;48.702;9.326;2023-05-29T15:08:40;4.47;;;2.70;;
7843;SDS011;3967;48.702;9.326;2023-05-29T15:11:09;5.43;;;2.58;;
7843;SDS011;3967;48.702;9.326;2023-05-29T15:13:39;3.53;;;2.40;;
7843;SDS011;3967;48.702;9.326;2023-05-29T15:16:06;2.80;;;2.60;;
7843;SDS011;3967;48.702;9.326;2023-05-29T15:18:33;4.15;;;2.70;;
7843;SDS011;3967;48.702;9.326;2023-05-29T15:21:01;3.25;;;2.88;;
7843;SDS011;3967;48.702;9.326;2023-05-29T15:23:28;5.68;;;2.50;;
7843;SDS011;3967;48.702;9.326;2023-05-29T15:25:55;2.53;;;2.33;;
7843;SDS011;3967;48.702;9.326;2023-05-29T15:28:22;4.10;;;2.75;;
7843;SDS011;3967;48.702;9.326;2023-05-29T15:30:49;3.15;;;2.85;;
7843;SDS011;3967;48.702;9.326;2023-05-29T15:33:15;3.40;;;2.80;;
7843;SDS011;3967;48.702;9.326;2023-05-29T15:35:42;2.47;;;2.30;;
7843;SDS011;3967;48.702;9.326;2023-05-29T15:38:09;4.93;;;2.50;;
7843;SDS011;3967;48.702;9.326;2023-05-29T15:40:38;2.60;;;2.40;;
7843;SDS011;3967;48.702;9.326;2023-05-29T15:43:06;3.00;;;2.47;;
7843;SDS011;3967;48.702;9.326;2023-05-29T15:45:33;2.80;;;2.47;;
7843;SDS011;3967;48.702;9.326;2023-05-29T15:48:00;2.55;;;2.30;;
7843;SDS011;3967;48.702;9.326;2023-05-29T15:50:27;2.67;;;2.40;;
7843;SDS011;3967;48.702;9.326;2023-05-29T15:52:54;2.50;;;2.30;;
7843;SDS011;3967;48.702;9.326;2023-05-29T15:55:22;2.63;;;2.42;;
7843;SDS011;3967;48.702;9.326;2023-05-29T15:57:49;4.15;;;2.30;;
7843;SDS011;3967;48.702;9.326;2023-05-29T16:00:17;3.15;;;2.42;;
7843;SDS011;3967;48.702;9.326;2023-05-29T16:02:44;2.30;;;2.10;;